sensor_id;sensor_type;location;lat;lon;timestamp;P1;durP1;ratioP1;P2;durP2;ratioP2
65187;SDS011;51775;51.148;6.950;2023-10-19T00:02:20;1.60;;;1.10;;
65187;SDS011;51775;51.148;6.950;2023-10-19T00:04:45;1.90;;;1.23;;
65187;SDS011;51775;51.148;6.950;2023-10-19T00:07:10;1.80;;;1.20;;
65187;SDS011;51775;51.148;6.950;2023-10-19T00:09:35;2.08;;;1.20;;
65187;SDS011;51775;51.148;6.950;2023-10-19T00:12:01;1.98;;;1.33;;
65187;SDS011;51775;51.148;6.950;2023-10-19T00:14:26;2.08;;;1.27;;
65187;SDS011;51775;51.148;6.950;2023-10-19T00:16:51;1.80;;;1.25;;
65187;SDS011;51775;51.148;6.950;2023-10-19T00:19:17;2.05;;;1.23;;
65187;SDS011;51775;51.148;6.950;2023-10-19T00:21:42;1.65;;;1.13;;
65187;SDS011;51775;51.148;6.950;2023-10-19T00:24:07;1.67;;;1.17;;
65187;SDS011;51775;51.148;6.950;2023-10-19T00:26:32;2.03;;;1.30;;
65187;SDS011;51775;51.148;6.950;2023-10-19T00:28:58;1.90;;;1.23;;
65187;SDS011;51775;51.148;6.950;2023-10-19T00:31:23;1.75;;;1.20;;
65187;SDS011;51775;51.148;6.950;2023-10-19T00:33:50;1.83;;;1.25;;
65187;SDS011;51775;51.148;6.950;2023-10-19T00:36:15;1.70;;;1.10;;
65187;SDS011;51775;51.148;6.950;2023-10-19T00:38:41;1.75;;;1.08;;
65187;SDS011;51775;51.148;6.950;2023-10-19T00:41:07;1.60;;;1.20;;
65187;SDS011;51775;51.148;6.950;2023-10-19T00:43:34;1.92;;;1.20;;
65187;SDS011;51775;51.148;6.950;2023-10-19T00:46:00;1.75;;;1.20;;
65187;SDS011;51775;51.148;6.950;2023-10-19T00:48:26;1.90;;;1.30;;
65187;SDS011;51775;51.148;6.950;2023-10-19T00:50:52;2.15;;;1.20;;
65187;SDS011;51775;51.148;6.950;2023-10-19T00:53:18;1.70;;;1.20;;
65187;SDS011;51775;51.148;6.950;2023-10-19T00:55:44;1.95;;;1.30;;
65187;SDS011;51775;51.148;6.950;2023-10-19T00:58:10;1.70;;;1.05;;
65187;SDS011;51775;51.148;6.950;2023-10-19T01:00:36;2.13;;;1.20;;
65187;SDS011;51775;51.148;6.950;2023-10-19T01:03:02;1.52;;;1.10;;
65187;SDS011;51775;51.148;6.950;2023-10-19T01:05:28;1.48;;;1.00;;
65187;SDS011;51775;51.148;6.950;2023-10-19T01:07:53;2.00;;;1.30;;
65187;SDS011;51775;51.148;6.950;2023-10-19T01:10:18;1.92;;;1.40;;
65187;SDS011;51775;51.148;6.950;2023-10-19T01:12:44;1.70;;;1.10;;
65187;SDS011;51775;51.148;6.950;2023-10-19T01:17:39;2.05;;;1.20;;
65187;SDS011;51775;51.148;6.950;2023-10-19T01:22:32;1.73;;;1.10;;
65187;SDS011;51775;51.148;6.950;2023-10-19T01:24:57;1.63;;;1.10;;
65187;SDS011;51775;51.148;6.950;2023-10-19T01:27:22;1.50;;;1.10;;
65187;SDS011;51775;51.148;6.950;2023-10-19T01:29:48;1.80;;;1.20;;
65187;SDS011;51775;51.148;6.950;2023-10-19T01:32:13;1.67;;;1.10;;
65187;SDS011;51775;51.148;6.950;2023-10-19T01:34:38;1.60;;;1.10;;
65187;SDS011;51775;51.148;6.950;2023-10-19T01:37:04;2.00;;;1.20;;
65187;SDS011;51775;51.148;6.950;2023-10-19T01:39:30;1.70;;;1.10;;
65187;SDS011;51775;51.148;6.950;2023-10-19T01:41:56;1.52;;;1.17;;
65187;SDS011;51775;51.148;6.950;2023-10-19T01:44:22;1.63;;;1.10;;
65187;SDS011;51775;51.148;6.950;2023-10-19T01:46:47;1.30;;;1.00;;
65187;SDS011;51775;51.148;6.950;2023-10-19T01:49:13;1.50;;;1.00;;
65187;SDS011;51775;51.148;6.950;2023-10-19T01:51:38;1.55;;;1.00;;
65187;SDS011;51775;51.148;6.950;2023-10-19T01:54:04;1.45;;;1.00;;
65187;SDS011;51775;51.148;6.950;2023-10-19T01:56:30;1.50;;;1.02;;
65187;SDS011;51775;51.148;6.950;2023-10-19T01:58:56;1.85;;;1.20;;
65187;SDS011;51775;51.148;6.950;2023-10-19T02:01:21;1.38;;;0.98;;
65187;SDS011;51775;51.148;6.950;2023-10-19T02:03:47;1.30;;;0.90;;
65187;SDS011;51775;51.148;6.950;2023-10-19T02:06:13;1.33;;;1.00;;
65187;SDS011;51775;51.148;6.950;2023-10-19T02:08:39;1.60;;;1.08;;
65187;SDS011;51775;51.148;6.950;2023-10-19T02:11:06;1.27;;;0.98;;
65187;SDS011;51775;51.148;6.950;2023-10-19T02:13:31;1.10;;;0.90;;
65187;SDS011;51775;51.148;6.950;2023-10-19T02:15:56;1.88;;;1.00;;
65187;SDS011;51775;51.148;6.950;2023-10-19T02:18:21;1.60;;;1.15;;
65187;SDS011;51775;51.148;6.950;2023-10-19T02:20:47;1.95;;;1.08;;
65187;SDS011;51775;51.148;6.950;2023-10-19T02:23:12;1.70;;;1.05;;
65187;SDS011;51775;51.148;6.950;2023-10-19T02:25:37;1.42;;;1.00;;
65187;SDS011;51775;51.148;6.950;2023-10-19T02:28:03;1.73;;;1.13;;
65187;SDS011;51775;51.148;6.950;2023-10-19T02:30:29;1.50;;;1.00;;
65187;SDS011;51775;51.148;6.950;2023-10-19T02:32:55;1.20;;;0.90;;
65187;SDS011;51775;51.148;6.950;2023-10-19T02:35:20;1.70;;;1.00;;
65187;SDS011;51775;51.148;6.950;2023-10-19T02:37:45;1.67;;;1.10;;
65187;SDS011;51775;51.148;6.950;2023-10-19T02:40:11;1.52;;;0.90;;
65187;SDS011;51775;51.148;6.950;2023-10-19T02:42:36;1.40;;;1.10;;
65187;SDS011;51775;51.148;6.950;2023-10-19T02:45:02;1.65;;;1.15;;
65187;SDS011;51775;51.148;6.950;2023-10-19T02:47:27;1.60;;;1.10;;
65187;SDS011;51775;51.148;6.950;2023-10-19T02:49:52;1.50;;;1.00;;
65187;SDS011;51775;51.148;6.950;2023-10-19T02:52:18;1.45;;;1.00;;
65187;SDS011;51775;51.148;6.950;2023-10-19T02:54:43;1.50;;;0.98;;
65187;SDS011;51775;51.148;6.950;2023-10-19T02:57:08;1.40;;;1.00;;
65187;SDS011;51775;51.148;6.950;2023-10-19T02:59:34;1.63;;;1.08;;
65187;SDS011;51775;51.148;6.950;2023-10-19T03:02:00;1.65;;;1.00;;
65187;SDS011;51775;51.148;6.950;2023-10-19T03:04:26;1.67;;;1.00;;
65187;SDS011;51775;51.148;6.950;2023-10-19T03:06:52;1.58;;;1.02;;
65187;SDS011;51775;51.148;6.950;2023-10-19T03:09:17;1.38;;;0.90;;
65187;SDS011;51775;51.148;6.950;2023-10-19T03:11:43;1.70;;;0.98;;
65187;SDS011;51775;51.148;6.950;2023-10-19T03:14:10;1.83;;;0.98;;
65187;SDS011;51775;51.148;6.950;2023-10-19T03:16:36;1.40;;;0.90;;
65187;SDS011;51775;51.148;6.950;2023-10-19T03:19:01;1.20;;;0.80;;
65187;SDS011;51775;51.148;6.950;2023-10-19T03:21:27;1.55;;;1.10;;
65187;SDS011;51775;51.148;6.950;2023-10-19T03:23:53;1.30;;;0.90;;
65187;SDS011;51775;51.148;6.950;2023-10-19T03:26:19;1.30;;;1.00;;
65187;SDS011;51775;51.148;6.950;2023-10-19T03:28:44;1.38;;;0.90;;
65187;SDS011;51775;51.148;6.950;2023-10-19T03:31:10;1.35;;;1.00;;
65187;SDS011;51775;51.148;6.950;2023-10-19T03:33:35;1.08;;;0.80;;
65187;SDS011;51775;51.148;6.950;2023-10-19T03:36:01;1.17;;;0.85;;
65187;SDS011;51775;51.148;6.950;2023-10-19T03:38:26;1.45;;;0.98;;
65187;SDS011;51775;51.148;6.950;2023-10-19T03:40:52;1.30;;;0.90;;
65187;SDS011;51775;51.148;6.950;2023-10-19T03:43:18;1.08;;;0.82;;
65187;SDS011;51775;51.148;6.950;2023-10-19T03:45:44;1.40;;;0.90;;
65187;SDS011;51775;51.148;6.950;2023-10-19T03:48:09;1.38;;;0.90;;
65187;SDS011;51775;51.148;6.950;2023-10-19T03:50:34;1.67;;;1.00;;
65187;SDS011;51775;51.148;6.950;2023-10-19T03:53:00;1.45;;;0.88;;
65187;SDS011;51775;51.148;6.950;2023-10-19T03:55:25;1.20;;;0.90;;
65187;SDS011;51775;51.148;6.950;2023-10-19T03:57:50;1.20;;;0.80;;
65187;SDS011;51775;51.148;6.950;2023-10-19T04:00:16;1.00;;;0.70;;
65187;SDS011;51775;51.148;6.950;2023-10-19T04:02:42;1.27;;;0.90;;
65187;SDS011;51775;51.148;6.950;2023-10-19T04:05:07;1.00;;;0.80;;
65187;SDS011;51775;51.148;6.950;2023-10-19T04:07:33;1.40;;;0.90;;
65187;SDS011;51775;51.148;6.950;2023-10-19T04:09:58;1.38;;;0.90;;
65187;SDS011;51775;51.148;6.950;2023-10-19T04:12:24;1.13;;;0.80;;
65187;SDS011;51775;51.148;6.950;2023-10-19T04:14:50;1.50;;;0.90;;
65187;SDS011;51775;51.148;6.950;2023-10-19T04:17:15;0.95;;;0.70;;
65187;SDS011;51775;51.148;6.950;2023-10-19T04:19:41;1.40;;;0.80;;
65187;SDS011;51775;51.148;6.950;2023-10-19T04:22:06;0.90;;;0.70;;
65187;SDS011;51775;51.148;6.950;2023-10-19T04:24:31;1.38;;;0.90;;
65187;SDS011;51775;51.148;6.950;2023-10-19T04:26:56;0.93;;;0.70;;
65187;SDS011;51775;51.148;6.950;2023-10-19T04:29:22;1.33;;;0.80;;
65187;SDS011;51775;51.148;6.950;2023-10-19T04:31:47;1.13;;;0.73;;
65187;SDS011;51775;51.148;6.950;2023-10-19T04:34:12;1.20;;;0.90;;
65187;SDS011;51775;51.148;6.950;2023-10-19T04:36:37;1.48;;;0.90;;
65187;SDS011;51775;51.148;6.950;2023-10-19T04:39:03;1.20;;;0.80;;
65187;SDS011;51775;51.148;6.950;2023-10-19T04:41:28;1.02;;;0.80;;
65187;SDS011;51775;51.148;6.950;2023-10-19T04:43:54;1.25;;;0.90;;
65187;SDS011;51775;51.148;6.950;2023-10-19T04:46:19;0.82;;;0.70;;
65187;SDS011;51775;51.148;6.950;2023-10-19T04:48:45;1.60;;;0.80;;
65187;SDS011;51775;51.148;6.950;2023-10-19T04:51:10;0.80;;;0.70;;
65187;SDS011;51775;51.148;6.950;2023-10-19T04:53:36;1.08;;;0.90;;
65187;SDS011;51775;51.148;6.950;2023-10-19T04:56:03;0.95;;;0.80;;
65187;SDS011;51775;51.148;6.950;2023-10-19T04:58:33;1.20;;;0.82;;
65187;SDS011;51775;51.148;6.950;2023-10-19T05:00:58;1.02;;;0.80;;
65187;SDS011;51775;51.148;6.950;2023-10-19T05:03:25;1.23;;;0.75;;
65187;SDS011;51775;51.148;6.950;2023-10-19T05:05:51;1.17;;;0.88;;
65187;SDS011;51775;51.148;6.950;2023-10-19T05:08:16;1.33;;;0.90;;
65187;SDS011;51775;51.148;6.950;2023-10-19T05:10:41;0.90;;;0.70;;
65187;SDS011;51775;51.148;6.950;2023-10-19T05:13:06;1.15;;;0.80;;
65187;SDS011;51775;51.148;6.950;2023-10-19T05:15:32;1.13;;;0.77;;
65187;SDS011;51775;51.148;6.950;2023-10-19T05:17:57;1.25;;;0.90;;
65187;SDS011;51775;51.148;6.950;2023-10-19T05:20:22;0.80;;;0.70;;
65187;SDS011;51775;51.148;6.950;2023-10-19T05:22:48;0.82;;;0.70;;
65187;SDS011;51775;51.148;6.950;2023-10-19T05:25:13;1.38;;;0.80;;
65187;SDS011;51775;51.148;6.950;2023-10-19T05:27:39;0.90;;;0.70;;
65187;SDS011;51775;51.148;6.950;2023-10-19T05:30:05;1.15;;;0.80;;
65187;SDS011;51775;51.148;6.950;2023-10-19T05:32:30;1.08;;;0.80;;
65187;SDS011;51775;51.148;6.950;2023-10-19T05:34:56;0.98;;;0.80;;
65187;SDS011;51775;51.148;6.950;2023-10-19T05:37:22;2.13;;;0.90;;
65187;SDS011;51775;51.148;6.950;2023-10-19T05:39:48;1.20;;;0.73;;
65187;SDS011;51775;51.148;6.950;2023-10-19T05:42:13;1.48;;;0.80;;
65187;SDS011;51775;51.148;6.950;2023-10-19T05:44:38;1.30;;;0.90;;
65187;SDS011;51775;51.148;6.950;2023-10-19T05:47:05;3.92;;;0.90;;
65187;SDS011;51775;51.148;6.950;2023-10-19T05:49:32;1.13;;;0.75;;
65187;SDS011;51775;51.148;6.950;2023-10-19T05:51:57;2.83;;;0.70;;
65187;SDS011;51775;51.148;6.950;2023-10-19T05:54:23;1.38;;;0.82;;
65187;SDS011;51775;51.148;6.950;2023-10-19T05:56:48;1.58;;;0.73;;
65187;SDS011;51775;51.148;6.950;2023-10-19T05:59:13;3.65;;;0.80;;
65187;SDS011;51775;51.148;6.950;2023-10-19T06:01:39;2.75;;;0.90;;
65187;SDS011;51775;51.148;6.950;2023-10-19T06:04:04;1.15;;;0.80;;
65187;SDS011;51775;51.148;6.950;2023-10-19T06:06:30;0.93;;;0.75;;
65187;SDS011;51775;51.148;6.950;2023-10-19T06:08:55;1.80;;;0.90;;
65187;SDS011;51775;51.148;6.950;2023-10-19T06:11:20;1.38;;;0.80;;
65187;SDS011;51775;51.148;6.950;2023-10-19T06:13:46;1.38;;;0.75;;
65187;SDS011;51775;51.148;6.950;2023-10-19T06:16:11;1.77;;;0.90;;
65187;SDS011;51775;51.148;6.950;2023-10-19T06:18:37;1.00;;;0.77;;
65187;SDS011;51775;51.148;6.950;2023-10-19T06:21:02;0.98;;;0.70;;
65187;SDS011;51775;51.148;6.950;2023-10-19T06:23:28;1.27;;;0.80;;
65187;SDS011;51775;51.148;6.950;2023-10-19T06:25:53;1.10;;;0.70;;
65187;SDS011;51775;51.148;6.950;2023-10-19T06:28:18;0.90;;;0.75;;
65187;SDS011;51775;51.148;6.950;2023-10-19T06:30:44;3.65;;;0.70;;
65187;SDS011;51775;51.148;6.950;2023-10-19T06:33:09;1.40;;;0.73;;
65187;SDS011;51775;51.148;6.950;2023-10-19T06:35:34;1.23;;;0.90;;
65187;SDS011;51775;51.148;6.950;2023-10-19T06:38:00;1.52;;;0.80;;
65187;SDS011;51775;51.148;6.950;2023-10-19T06:40:27;1.15;;;0.77;;
65187;SDS011;51775;51.148;6.950;2023-10-19T06:42:56;3.17;;;0.80;;
65187;SDS011;51775;51.148;6.950;2023-10-19T06:45:22;1.35;;;0.90;;
65187;SDS011;51775;51.148;6.950;2023-10-19T06:47:49;2.33;;;1.00;;
65187;SDS011;51775;51.148;6.950;2023-10-19T06:50:15;1.58;;;0.80;;
65187;SDS011;51775;51.148;6.950;2023-10-19T06:52:42;1.30;;;0.80;;
65187;SDS011;51775;51.148;6.950;2023-10-19T06:55:09;1.27;;;0.90;;
65187;SDS011;51775;51.148;6.950;2023-10-19T06:57:35;1.35;;;0.93;;
65187;SDS011;51775;51.148;6.950;2023-10-19T07:00:01;1.92;;;0.90;;
65187;SDS011;51775;51.148;6.950;2023-10-19T07:02:26;1.05;;;0.70;;
65187;SDS011;51775;51.148;6.950;2023-10-19T07:04:52;2.50;;;0.82;;
65187;SDS011;51775;51.148;6.950;2023-10-19T07:10:20;1.45;;;0.90;;
65187;SDS011;51775;51.148;6.950;2023-10-19T07:12:51;2.20;;;0.90;;
65187;SDS011;51775;51.148;6.950;2023-10-19T07:15:17;1.23;;;0.82;;
65187;SDS011;51775;51.148;6.950;2023-10-19T07:17:42;2.80;;;0.90;;
65187;SDS011;51775;51.148;6.950;2023-10-19T07:20:09;2.80;;;0.80;;
65187;SDS011;51775;51.148;6.950;2023-10-19T07:22:35;1.58;;;0.90;;
65187;SDS011;51775;51.148;6.950;2023-10-19T07:25:01;1.50;;;0.90;;
65187;SDS011;51775;51.148;6.950;2023-10-19T07:27:26;1.75;;;1.00;;
65187;SDS011;51775;51.148;6.950;2023-10-19T07:29:51;1.25;;;0.80;;
65187;SDS011;51775;51.148;6.950;2023-10-19T07:32:16;1.20;;;0.80;;
65187;SDS011;51775;51.148;6.950;2023-10-19T07:34:42;1.20;;;0.90;;
65187;SDS011;51775;51.148;6.950;2023-10-19T07:37:07;1.95;;;1.02;;
65187;SDS011;51775;51.148;6.950;2023-10-19T07:39:33;1.10;;;0.90;;
65187;SDS011;51775;51.148;6.950;2023-10-19T07:41:58;2.55;;;1.00;;
65187;SDS011;51775;51.148;6.950;2023-10-19T07:44:24;1.25;;;0.80;;
65187;SDS011;51775;51.148;6.950;2023-10-19T07:46:49;1.73;;;0.93;;
65187;SDS011;51775;51.148;6.950;2023-10-19T07:49:14;1.60;;;0.88;;
65187;SDS011;51775;51.148;6.950;2023-10-19T07:51:49;1.42;;;0.82;;
65187;SDS011;51775;51.148;6.950;2023-10-19T07:54:14;1.52;;;1.00;;
65187;SDS011;51775;51.148;6.950;2023-10-19T07:56:39;2.47;;;1.00;;
65187;SDS011;51775;51.148;6.950;2023-10-19T07:59:05;2.20;;;0.90;;
65187;SDS011;51775;51.148;6.950;2023-10-19T08:01:30;1.55;;;0.90;;
65187;SDS011;51775;51.148;6.950;2023-10-19T08:03:55;1.38;;;0.90;;
65187;SDS011;51775;51.148;6.950;2023-10-19T08:06:21;1.35;;;0.90;;
65187;SDS011;51775;51.148;6.950;2023-10-19T08:08:46;1.20;;;0.90;;
65187;SDS011;51775;51.148;6.950;2023-10-19T08:11:11;1.33;;;0.90;;
65187;SDS011;51775;51.148;6.950;2023-10-19T08:13:37;1.20;;;0.80;;
65187;SDS011;51775;51.148;6.950;2023-10-19T08:16:02;1.27;;;0.90;;
65187;SDS011;51775;51.148;6.950;2023-10-19T08:18:27;1.55;;;0.93;;
65187;SDS011;51775;51.148;6.950;2023-10-19T08:20:53;1.40;;;0.90;;
65187;SDS011;51775;51.148;6.950;2023-10-19T08:23:18;2.20;;;1.00;;
65187;SDS011;51775;51.148;6.950;2023-10-19T08:25:43;1.67;;;1.00;;
65187;SDS011;51775;51.148;6.950;2023-10-19T08:28:09;1.83;;;1.00;;
65187;SDS011;51775;51.148;6.950;2023-10-19T08:30:34;2.97;;;0.98;;
65187;SDS011;51775;51.148;6.950;2023-10-19T08:32:59;1.95;;;1.10;;
65187;SDS011;51775;51.148;6.950;2023-10-19T08:35:25;1.35;;;0.90;;
65187;SDS011;51775;51.148;6.950;2023-10-19T08:37:51;2.42;;;0.95;;
65187;SDS011;51775;51.148;6.950;2023-10-19T08:40:20;1.60;;;0.90;;
65187;SDS011;51775;51.148;6.950;2023-10-19T08:42:45;1.92;;;0.82;;
65187;SDS011;51775;51.148;6.950;2023-10-19T08:45:11;2.47;;;0.82;;
65187;SDS011;51775;51.148;6.950;2023-10-19T08:47:37;1.45;;;0.90;;
65187;SDS011;51775;51.148;6.950;2023-10-19T08:50:08;1.58;;;0.90;;
65187;SDS011;51775;51.148;6.950;2023-10-19T08:52:34;1.88;;;1.00;;
65187;SDS011;51775;51.148;6.950;2023-10-19T08:55:01;1.50;;;0.90;;
65187;SDS011;51775;51.148;6.950;2023-10-19T08:57:26;1.73;;;0.95;;
65187;SDS011;51775;51.148;6.950;2023-10-19T08:59:52;1.50;;;0.90;;
65187;SDS011;51775;51.148;6.950;2023-10-19T09:02:17;1.45;;;0.95;;
65187;SDS011;51775;51.148;6.950;2023-10-19T09:04:43;1.67;;;0.90;;
65187;SDS011;51775;51.148;6.950;2023-10-19T09:07:08;1.92;;;1.10;;
65187;SDS011;51775;51.148;6.950;2023-10-19T09:09:34;4.00;;;1.10;;
65187;SDS011;51775;51.148;6.950;2023-10-19T09:11:59;2.03;;;1.00;;
65187;SDS011;51775;51.148;6.950;2023-10-19T09:14:30;2.38;;;0.80;;
65187;SDS011;51775;51.148;6.950;2023-10-19T09:16:56;4.13;;;1.00;;
65187;SDS011;51775;51.148;6.950;2023-10-19T09:19:43;3.10;;;0.95;;
65187;SDS011;51775;51.148;6.950;2023-10-19T09:22:11;1.55;;;0.90;;
65187;SDS011;51775;51.148;6.950;2023-10-19T09:24:36;5.25;;;0.90;;
65187;SDS011;51775;51.148;6.950;2023-10-19T09:27:02;3.00;;;0.88;;
65187;SDS011;51775;51.148;6.950;2023-10-19T09:29:28;5.43;;;1.02;;
65187;SDS011;51775;51.148;6.950;2023-10-19T09:31:53;1.58;;;1.10;;
65187;SDS011;51775;51.148;6.950;2023-10-19T09:34:23;1.63;;;0.90;;
65187;SDS011;51775;51.148;6.950;2023-10-19T09:36:50;2.15;;;0.82;;
65187;SDS011;51775;51.148;6.950;2023-10-19T09:39:17;2.00;;;0.90;;
65187;SDS011;51775;51.148;6.950;2023-10-19T09:41:42;2.53;;;0.90;;
65187;SDS011;51775;51.148;6.950;2023-10-19T09:44:08;1.00;;;0.80;;
65187;SDS011;51775;51.148;6.950;2023-10-19T09:46:35;2.40;;;1.00;;
65187;SDS011;51775;51.148;6.950;2023-10-19T09:49:02;3.55;;;0.88;;
65187;SDS011;51775;51.148;6.950;2023-10-19T09:51:27;4.00;;;0.93;;
65187;SDS011;51775;51.148;6.950;2023-10-19T09:56:32;1.27;;;0.80;;
65187;SDS011;51775;51.148;6.950;2023-10-19T09:59:11;1.58;;;0.77;;
65187;SDS011;51775;51.148;6.950;2023-10-19T10:02:03;1.88;;;0.90;;
65187;SDS011;51775;51.148;6.950;2023-10-19T10:04:33;1.75;;;0.85;;
65187;SDS011;51775;51.148;6.950;2023-10-19T10:06:59;1.75;;;0.70;;
65187;SDS011;51775;51.148;6.950;2023-10-19T10:09:28;2.17;;;0.80;;
65187;SDS011;51775;51.148;6.950;2023-10-19T10:11:54;1.88;;;0.80;;
65187;SDS011;51775;51.148;6.950;2023-10-19T10:14:23;1.80;;;0.90;;
65187;SDS011;51775;51.148;6.950;2023-10-19T10:17:01;1.33;;;0.73;;
65187;SDS011;51775;51.148;6.950;2023-10-19T10:19:27;1.48;;;0.80;;
65187;SDS011;51775;51.148;6.950;2023-10-19T10:22:11;1.90;;;0.73;;
65187;SDS011;51775;51.148;6.950;2023-10-19T10:24:39;1.75;;;0.70;;
65187;SDS011;51775;51.148;6.950;2023-10-19T10:27:05;2.10;;;0.80;;
65187;SDS011;51775;51.148;6.950;2023-10-19T10:29:31;1.48;;;0.80;;
65187;SDS011;51775;51.148;6.950;2023-10-19T10:31:56;1.33;;;0.80;;
65187;SDS011;51775;51.148;6.950;2023-10-19T10:37:03;2.15;;;0.80;;
65187;SDS011;51775;51.148;6.950;2023-10-19T10:39:30;1.70;;;0.82;;
65187;SDS011;51775;51.148;6.950;2023-10-19T10:42:00;2.83;;;0.90;;
65187;SDS011;51775;51.148;6.950;2023-10-19T10:44:46;2.72;;;1.00;;
65187;SDS011;51775;51.148;6.950;2023-10-19T10:47:17;3.05;;;1.00;;
65187;SDS011;51775;51.148;6.950;2023-10-19T10:52:30;2.60;;;1.10;;
65187;SDS011;51775;51.148;6.950;2023-10-19T10:54:56;3.67;;;1.10;;
65187;SDS011;51775;51.148;6.950;2023-10-19T10:57:22;5.40;;;1.00;;
65187;SDS011;51775;51.148;6.950;2023-10-19T10:59:47;4.95;;;1.40;;
65187;SDS011;51775;51.148;6.950;2023-10-19T11:02:26;3.83;;;1.00;;
65187;SDS011;51775;51.148;6.950;2023-10-19T11:04:51;2.25;;;1.10;;
65187;SDS011;51775;51.148;6.950;2023-10-19T11:07:19;6.28;;;1.20;;
65187;SDS011;51775;51.148;6.950;2023-10-19T11:09:45;5.13;;;1.15;;
65187;SDS011;51775;51.148;6.950;2023-10-19T11:12:11;3.22;;;1.10;;
65187;SDS011;51775;51.148;6.950;2023-10-19T11:14:51;2.10;;;1.10;;
65187;SDS011;51775;51.148;6.950;2023-10-19T11:17:25;4.40;;;1.00;;
65187;SDS011;51775;51.148;6.950;2023-10-19T11:19:55;4.30;;;0.88;;
65187;SDS011;51775;51.148;6.950;2023-10-19T11:22:24;2.85;;;0.80;;
65187;SDS011;51775;51.148;6.950;2023-10-19T11:24:50;2.95;;;1.23;;
65187;SDS011;51775;51.148;6.950;2023-10-19T11:27:27;2.85;;;0.82;;
65187;SDS011;51775;51.148;6.950;2023-10-19T11:32:19;5.00;;;1.13;;
65187;SDS011;51775;51.148;6.950;2023-10-19T11:34:46;3.58;;;1.00;;
65187;SDS011;51775;51.148;6.950;2023-10-19T11:37:11;2.70;;;0.90;;
65187;SDS011;51775;51.148;6.950;2023-10-19T11:39:37;3.67;;;0.90;;
65187;SDS011;51775;51.148;6.950;2023-10-19T11:42:02;4.57;;;1.17;;
65187;SDS011;51775;51.148;6.950;2023-10-19T11:44:27;3.22;;;1.02;;
65187;SDS011;51775;51.148;6.950;2023-10-19T11:46:53;4.13;;;1.00;;
65187;SDS011;51775;51.148;6.950;2023-10-19T11:49:18;2.30;;;0.82;;
65187;SDS011;51775;51.148;6.950;2023-10-19T11:51:43;3.40;;;1.00;;
65187;SDS011;51775;51.148;6.950;2023-10-19T11:54:09;3.75;;;0.93;;
65187;SDS011;51775;51.148;6.950;2023-10-19T11:56:34;3.30;;;1.15;;
65187;SDS011;51775;51.148;6.950;2023-10-19T11:59:00;3.50;;;1.10;;
65187;SDS011;51775;51.148;6.950;2023-10-19T12:01:25;4.05;;;1.50;;
65187;SDS011;51775;51.148;6.950;2023-10-19T12:03:50;3.63;;;1.10;;
65187;SDS011;51775;51.148;6.950;2023-10-19T12:06:16;5.03;;;1.05;;
65187;SDS011;51775;51.148;6.950;2023-10-19T12:08:41;4.60;;;1.00;;
65187;SDS011;51775;51.148;6.950;2023-10-19T12:11:06;7.25;;;1.45;;
65187;SDS011;51775;51.148;6.950;2023-10-19T12:13:31;4.60;;;1.05;;
65187;SDS011;51775;51.148;6.950;2023-10-19T12:15:57;6.80;;;1.20;;
65187;SDS011;51775;51.148;6.950;2023-10-19T12:18:23;4.55;;;1.15;;
65187;SDS011;51775;51.148;6.950;2023-10-19T12:20:49;7.68;;;1.33;;
65187;SDS011;51775;51.148;6.950;2023-10-19T12:23:14;4.57;;;1.10;;
65187;SDS011;51775;51.148;6.950;2023-10-19T12:25:40;5.70;;;1.15;;
65187;SDS011;51775;51.148;6.950;2023-10-19T12:28:06;2.78;;;1.00;;
65187;SDS011;51775;51.148;6.950;2023-10-19T12:30:31;4.18;;;1.10;;
65187;SDS011;51775;51.148;6.950;2023-10-19T12:32:59;2.85;;;0.93;;
65187;SDS011;51775;51.148;6.950;2023-10-19T12:35:25;4.40;;;1.10;;
65187;SDS011;51775;51.148;6.950;2023-10-19T12:37:50;2.85;;;1.00;;
65187;SDS011;51775;51.148;6.950;2023-10-19T12:40:16;3.20;;;1.13;;
65187;SDS011;51775;51.148;6.950;2023-10-19T12:42:41;3.08;;;0.82;;
65187;SDS011;51775;51.148;6.950;2023-10-19T12:45:06;3.38;;;1.00;;
65187;SDS011;51775;51.148;6.950;2023-10-19T12:47:33;3.40;;;1.00;;
65187;SDS011;51775;51.148;6.950;2023-10-19T12:49:58;3.85;;;1.00;;
65187;SDS011;51775;51.148;6.950;2023-10-19T12:52:24;3.13;;;1.00;;
65187;SDS011;51775;51.148;6.950;2023-10-19T12:54:49;3.50;;;1.10;;
65187;SDS011;51775;51.148;6.950;2023-10-19T12:57:14;3.60;;;1.00;;
65187;SDS011;51775;51.148;6.950;2023-10-19T12:59:39;4.13;;;1.00;;
65187;SDS011;51775;51.148;6.950;2023-10-19T13:02:05;2.67;;;0.95;;
65187;SDS011;51775;51.148;6.950;2023-10-19T13:04:30;4.07;;;1.15;;
65187;SDS011;51775;51.148;6.950;2023-10-19T13:06:56;3.25;;;1.00;;
65187;SDS011;51775;51.148;6.950;2023-10-19T13:09:21;2.65;;;0.90;;
65187;SDS011;51775;51.148;6.950;2023-10-19T13:11:49;2.13;;;0.88;;
65187;SDS011;51775;51.148;6.950;2023-10-19T13:14:15;2.45;;;1.00;;
65187;SDS011;51775;51.148;6.950;2023-10-19T13:16:40;3.28;;;1.00;;
65187;SDS011;51775;51.148;6.950;2023-10-19T13:19:05;2.22;;;0.82;;
65187;SDS011;51775;51.148;6.950;2023-10-19T13:21:31;3.90;;;1.00;;
65187;SDS011;51775;51.148;6.950;2023-10-19T13:23:56;2.38;;;0.90;;
65187;SDS011;51775;51.148;6.950;2023-10-19T13:26:21;2.53;;;0.90;;
65187;SDS011;51775;51.148;6.950;2023-10-19T13:28:47;3.05;;;0.80;;
65187;SDS011;51775;51.148;6.950;2023-10-19T13:31:13;2.40;;;0.90;;
65187;SDS011;51775;51.148;6.950;2023-10-19T13:33:38;3.05;;;1.25;;
65187;SDS011;51775;51.148;6.950;2023-10-19T13:36:04;2.08;;;1.00;;
65187;SDS011;51775;51.148;6.950;2023-10-19T13:38:30;2.53;;;0.90;;
65187;SDS011;51775;51.148;6.950;2023-10-19T13:40:56;2.72;;;0.85;;
65187;SDS011;51775;51.148;6.950;2023-10-19T13:43:21;2.13;;;0.90;;
65187;SDS011;51775;51.148;6.950;2023-10-19T13:45:47;2.30;;;0.70;;
65187;SDS011;51775;51.148;6.950;2023-10-19T13:48:13;3.25;;;0.80;;
65187;SDS011;51775;51.148;6.950;2023-10-19T13:50:46;2.13;;;0.90;;
65187;SDS011;51775;51.148;6.950;2023-10-19T13:53:12;2.55;;;0.80;;
65187;SDS011;51775;51.148;6.950;2023-10-19T13:55:37;3.05;;;0.95;;
65187;SDS011;51775;51.148;6.950;2023-10-19T13:58:03;2.47;;;0.90;;
65187;SDS011;51775;51.148;6.950;2023-10-19T14:00:28;1.85;;;0.98;;
65187;SDS011;51775;51.148;6.950;2023-10-19T14:02:54;2.92;;;0.77;;
65187;SDS011;51775;51.148;6.950;2023-10-19T14:05:19;4.28;;;0.90;;
65187;SDS011;51775;51.148;6.950;2023-10-19T14:07:45;2.83;;;0.90;;
65187;SDS011;51775;51.148;6.950;2023-10-19T14:10:11;2.53;;;0.90;;
65187;SDS011;51775;51.148;6.950;2023-10-19T14:12:37;1.83;;;1.02;;
65187;SDS011;51775;51.148;6.950;2023-10-19T14:15:03;2.05;;;0.80;;
65187;SDS011;51775;51.148;6.950;2023-10-19T14:17:28;2.33;;;0.88;;
65187;SDS011;51775;51.148;6.950;2023-10-19T14:19:54;2.22;;;0.88;;
65187;SDS011;51775;51.148;6.950;2023-10-19T14:22:19;1.65;;;0.77;;
65187;SDS011;51775;51.148;6.950;2023-10-19T14:24:44;3.08;;;0.80;;
65187;SDS011;51775;51.148;6.950;2023-10-19T14:27:10;0.98;;;0.70;;
65187;SDS011;51775;51.148;6.950;2023-10-19T14:29:35;2.90;;;0.98;;
65187;SDS011;51775;51.148;6.950;2023-10-19T14:32:00;1.80;;;0.90;;
65187;SDS011;51775;51.148;6.950;2023-10-19T14:34:26;1.90;;;0.90;;
65187;SDS011;51775;51.148;6.950;2023-10-19T14:36:51;3.03;;;0.80;;
65187;SDS011;51775;51.148;6.950;2023-10-19T14:39:16;1.88;;;0.73;;
65187;SDS011;51775;51.148;6.950;2023-10-19T14:41:41;2.03;;;0.80;;
65187;SDS011;51775;51.148;6.950;2023-10-19T14:44:07;2.05;;;1.02;;
65187;SDS011;51775;51.148;6.950;2023-10-19T14:46:32;1.80;;;0.75;;
65187;SDS011;51775;51.148;6.950;2023-10-19T14:48:57;1.13;;;0.80;;
65187;SDS011;51775;51.148;6.950;2023-10-19T14:51:23;2.53;;;0.80;;
65187;SDS011;51775;51.148;6.950;2023-10-19T14:53:48;2.58;;;1.00;;
65187;SDS011;51775;51.148;6.950;2023-10-19T14:56:13;1.48;;;0.80;;
65187;SDS011;51775;51.148;6.950;2023-10-19T14:58:39;1.50;;;0.80;;
65187;SDS011;51775;51.148;6.950;2023-10-19T15:01:04;1.98;;;0.90;;